createdAt,value
2023-01-30T00:01:20.024Z,45.47
2023-01-30T00:03:49.902Z,45.82
2023-01-30T00:06:18.710Z,45.94
2023-01-30T00:08:47.394Z,45.90
2023-01-30T00:11:19.613Z,45.70
2023-01-30T00:13:50.500Z,45.80
2023-01-30T00:16:19.502Z,45.67
2023-01-30T00:18:49.381Z,45.15
2023-01-30T00:21:17.888Z,45.51
2023-01-30T00:23:46.481Z,45.17
2023-01-30T00:26:14.972Z,46.00
2023-01-30T00:28:43.380Z,45.41
2023-01-30T00:31:11.993Z,45.59
2023-01-30T00:33:40.439Z,45.60
2023-01-30T00:36:11.854Z,45.19
2023-01-30T00:38:40.295Z,45.92
2023-01-30T00:41:10.778Z,45.96
2023-01-30T00:43:56.793Z,45.87
2023-01-30T00:46:47.803Z,45.61
2023-01-30T00:49:16.302Z,45.62
2023-01-30T00:51:46.427Z,45.83
2023-01-30T00:54:14.944Z,46.15
2023-01-30T00:56:43.344Z,45.82
2023-01-30T00:59:11.785Z,45.66
2023-01-30T01:01:40.379Z,45.58
2023-01-30T01:04:10.612Z,46.00
2023-01-30T01:06:39.175Z,45.15
2023-01-30T01:09:09.176Z,45.54
2023-01-30T01:11:37.982Z,45.79
2023-01-30T01:14:07.885Z,45.47
2023-01-30T01:16:37.351Z,45.97
2023-01-30T01:19:06.290Z,46.13
2023-01-30T01:21:34.703Z,45.97
2023-01-30T01:24:03.193Z,45.80
2023-01-30T01:26:33.002Z,45.75
2023-01-30T01:29:01.605Z,45.39
2023-01-30T01:31:30.101Z,45.91
2023-01-30T01:33:59.089Z,46.21
2023-01-30T01:36:53.098Z,45.96
2023-01-30T01:39:15.882Z,46.51
2023-01-30T01:41:44.702Z,46.53
2023-01-30T01:44:17.119Z,46.10
2023-01-30T01:46:50.105Z,46.39
2023-01-30T01:49:24.143Z,46.20
2023-01-30T01:51:59.475Z,46.11
2023-01-30T01:54:35.498Z,45.98
2023-01-30T01:57:12.111Z,45.87
2023-01-30T01:59:45.696Z,46.03
2023-01-30T02:02:16.431Z,46.29
2023-01-30T02:05:13.257Z,45.94
2023-01-30T02:07:51.427Z,46.07
2023-01-30T02:10:24.730Z,46.31
2023-01-30T02:12:54.592Z,45.60
2023-01-30T02:15:23.238Z,46.60
2023-01-30T02:17:51.717Z,45.51
2023-01-30T02:20:37.989Z,45.70
2023-01-30T02:24:05.797Z,46.15
2023-01-30T02:27:15.301Z,46.43
2023-01-30T02:30:21.875Z,46.34
2023-01-30T02:33:03.456Z,45.95
2023-01-30T02:35:46.678Z,45.91
2023-01-30T02:38:28.477Z,45.95
2023-01-30T02:41:11.670Z,45.74
2023-01-30T02:43:50.485Z,46.13
2023-01-30T02:46:25.417Z,45.77
2023-01-30T02:49:01.225Z,46.20
2023-01-30T02:51:32.873Z,46.15
2023-01-30T02:54:01.828Z,46.13
2023-01-30T02:56:30.213Z,46.11
2023-01-30T02:59:06.161Z,45.94
2023-01-30T03:02:10.393Z,45.69
2023-01-30T03:05:00.666Z,46.05
2023-01-30T03:07:39.523Z,46.03
2023-01-30T03:10:17.115Z,46.17
2023-01-30T03:12:53.924Z,45.96
2023-01-30T03:15:30.125Z,46.03
2023-01-30T03:17:59.246Z,46.06
2023-01-30T03:20:29.047Z,45.51
2023-01-30T03:22:57.404Z,46.01
2023-01-30T03:25:27.762Z,45.89
2023-01-30T03:27:57.767Z,45.84
2023-01-30T03:30:27.805Z,45.75
2023-01-30T03:32:56.260Z,45.80
2023-01-30T03:35:24.840Z,46.03
2023-01-30T03:37:54.600Z,45.58
2023-01-30T03:40:23.902Z,45.81
2023-01-30T03:42:52.277Z,45.88
2023-01-30T03:45:20.682Z,46.18
2023-01-30T03:47:49.024Z,45.85
2023-01-30T03:50:17.911Z,45.75
2023-01-30T03:52:46.339Z,46.19
2023-01-30T03:55:16.787Z,45.86
2023-01-30T03:57:45.459Z,46.26
2023-01-30T04:00:15.476Z,45.75
2023-01-30T04:02:43.895Z,45.50
2023-01-30T04:05:12.306Z,45.73
2023-01-30T04:07:40.649Z,45.60
2023-01-30T04:10:10.792Z,45.82
2023-01-30T04:12:40.540Z,45.53
2023-01-30T04:15:10.988Z,45.25
2023-01-30T04:17:39.453Z,46.22
2023-01-30T04:20:09.966Z,46.07
2023-01-30T04:22:38.349Z,45.79
2023-01-30T04:25:08.172Z,45.36
2023-01-30T04:27:36.593Z,45.93
2023-01-30T04:30:08.508Z,46.03
2023-01-30T04:32:36.873Z,45.83
2023-01-30T04:35:06.384Z,45.78
2023-01-30T04:37:34.790Z,45.98
2023-01-30T04:40:03.223Z,45.83
2023-01-30T04:42:31.577Z,45.41
2023-01-30T04:44:59.967Z,45.95
2023-01-30T04:47:29.730Z,45.80
2023-01-30T04:49:58.208Z,45.82
2023-01-30T04:52:26.600Z,45.26
2023-01-30T04:54:55.021Z,44.84
2023-01-30T04:57:23.402Z,45.25
2023-01-30T04:59:51.751Z,45.20
2023-01-30T05:02:21.841Z,44.97
2023-01-30T05:04:52.827Z,45.94
2023-01-30T05:07:21.249Z,45.94
2023-01-30T05:09:49.603Z,45.44
2023-01-30T05:12:18.045Z,45.57
2023-01-30T05:14:46.960Z,45.62
2023-01-30T05:17:15.352Z,45.53
2023-01-30T05:19:43.793Z,44.81
2023-01-30T05:22:13.530Z,45.48
2023-01-30T05:24:41.896Z,45.28
2023-01-30T05:27:10.336Z,45.70
2023-01-30T05:29:38.710Z,45.09
2023-01-30T05:32:07.987Z,45.31
2023-01-30T05:34:36.330Z,45.04
2023-01-30T05:37:04.748Z,44.66
2023-01-30T05:39:34.511Z,45.34
2023-01-30T05:42:03.031Z,45.20
2023-01-30T05:44:31.512Z,45.22
2023-01-30T05:46:59.952Z,44.38
2023-01-30T05:49:28.314Z,44.51
2023-01-30T05:51:56.863Z,45.12
2023-01-30T05:54:25.552Z,44.25
2023-01-30T05:56:55.326Z,44.43
2023-01-30T05:59:23.975Z,44.35
2023-01-30T06:01:52.377Z,44.79
2023-01-30T06:04:20.740Z,44.35
2023-01-30T06:06:51.651Z,44.66
2023-01-30T06:09:20.003Z,44.49
2023-01-30T06:11:48.374Z,44.55
2023-01-30T06:14:18.259Z,43.96
2023-01-30T06:16:46.665Z,44.26
2023-01-30T06:19:15.064Z,43.83
2023-01-30T06:21:43.462Z,44.64
2023-01-30T06:24:11.876Z,44.74
2023-01-30T06:26:40.330Z,44.30
2023-01-30T06:29:08.728Z,44.07
2023-01-30T06:31:38.585Z,44.10
2023-01-30T06:34:07.076Z,44.14
2023-01-30T06:36:35.983Z,44.31
2023-01-30T06:39:04.824Z,44.43
2023-01-30T06:41:33.217Z,44.34
2023-01-30T06:44:01.619Z,43.91
2023-01-30T06:46:30.135Z,44.17
2023-01-30T06:48:59.923Z,44.45
2023-01-30T06:51:28.375Z,44.61
2023-01-30T06:53:56.746Z,43.97
2023-01-30T06:56:25.206Z,44.62
2023-01-30T06:58:53.631Z,43.83
2023-01-30T07:01:22.358Z,44.36
2023-01-30T07:03:50.735Z,44.50
2023-01-30T07:06:20.607Z,44.32
2023-01-30T07:08:48.991Z,44.18
2023-01-30T07:11:17.400Z,43.91
2023-01-30T07:13:46.081Z,43.78
2023-01-30T07:16:14.533Z,44.25
2023-01-30T07:18:42.886Z,43.59
2023-01-30T07:21:11.325Z,43.90
2023-01-30T07:23:41.128Z,43.75
2023-01-30T07:26:09.528Z,43.74
2023-01-30T07:28:37.945Z,43.71
2023-01-30T07:31:06.731Z,43.19
2023-01-30T07:33:35.114Z,43.43
2023-01-30T07:36:03.563Z,43.17
2023-01-30T07:38:31.966Z,42.77
2023-01-30T07:41:01.873Z,42.65
2023-01-30T07:43:30.555Z,42.26
2023-01-30T07:45:58.907Z,42.45
2023-01-30T07:48:27.317Z,42.44
2023-01-30T07:50:57.807Z,42.79
2023-01-30T07:53:26.189Z,42.07
2023-01-30T07:55:54.584Z,41.89
2023-01-30T07:58:24.411Z,42.26
2023-01-30T08:00:57.447Z,41.43
2023-01-30T08:03:25.909Z,41.87
2023-01-30T08:05:54.621Z,41.63
2023-01-30T08:08:23.030Z,41.95
2023-01-30T08:10:51.491Z,42.04
2023-01-30T08:13:19.949Z,41.49
2023-01-30T08:15:50.322Z,41.90
2023-01-30T08:18:18.918Z,41.88
2023-01-30T08:20:47.443Z,41.20
2023-01-30T08:23:15.897Z,41.45
2023-01-30T08:25:44.482Z,41.74
2023-01-30T08:28:12.901Z,41.83
2023-01-30T08:30:43.189Z,41.41
2023-01-30T08:33:13.055Z,41.64
2023-01-30T08:35:42.104Z,41.33
2023-01-30T08:38:10.685Z,41.20
2023-01-30T08:40:39.383Z,41.13
2023-01-30T08:43:08.478Z,40.93
2023-01-30T08:45:36.932Z,40.55
2023-01-30T08:48:07.864Z,40.53
2023-01-30T08:50:38.069Z,40.28
2023-01-30T08:53:09.224Z,40.20
2023-01-30T08:55:37.799Z,40.35
2023-01-30T08:58:06.253Z,40.16
2023-01-30T09:00:34.684Z,39.32
2023-01-30T09:03:03.299Z,39.53
2023-01-30T09:05:31.767Z,39.58
2023-01-30T09:08:01.819Z,38.74
2023-01-30T09:10:30.934Z,38.64
2023-01-30T09:12:59.433Z,38.75
2023-01-30T09:15:28.190Z,38.90
2023-01-30T09:17:56.744Z,38.77
2023-01-30T09:20:25.849Z,38.73
2023-01-30T09:22:54.383Z,38.54
2023-01-30T09:25:24.259Z,38.25
2023-01-30T09:27:52.889Z,37.85
2023-01-30T09:30:22.163Z,37.99
2023-01-30T09:32:50.726Z,37.84
2023-01-30T09:35:19.418Z,37.85
2023-01-30T09:37:51.910Z,37.67
2023-01-30T09:40:26.195Z,36.97
2023-01-30T09:43:26.038Z,37.49
2023-01-30T09:46:12.385Z,37.54
2023-01-30T09:48:55.465Z,38.08
2023-01-30T09:51:46.849Z,37.53
2023-01-30T09:54:30.653Z,37.68
2023-01-30T09:57:21.916Z,37.59
2023-01-30T10:00:02.055Z,37.99
2023-01-30T10:02:51.434Z,38.38
2023-01-30T10:05:20.244Z,37.74
2023-01-30T10:08:13.140Z,38.41
2023-01-30T10:10:57.864Z,38.17
2023-01-30T10:14:04.026Z,38.13
2023-01-30T10:16:39.174Z,38.02
2023-01-30T10:19:37.978Z,38.43
2023-01-30T10:22:19.052Z,38.13
2023-01-30T10:25:04.306Z,36.92
2023-01-30T10:27:34.657Z,36.89
2023-01-30T10:30:09.194Z,35.72
2023-01-30T10:32:45.303Z,35.33
2023-01-30T10:35:20.768Z,35.42
2023-01-30T10:37:59.680Z,35.23
2023-01-30T10:40:37.044Z,36.14
2023-01-30T10:43:16.640Z,36.03
2023-01-30T10:45:59.352Z,35.70
2023-01-30T10:48:53.911Z,35.42
2023-01-30T10:51:38.467Z,36.23
2023-01-30T10:54:17.475Z,35.44
2023-01-30T10:56:57.318Z,34.59
2023-01-30T10:59:35.845Z,35.17
2023-01-30T11:02:25.538Z,35.13
2023-01-30T11:05:00.396Z,35.42
2023-01-30T11:07:33.192Z,35.10
2023-01-30T11:10:02.422Z,35.17
2023-01-30T11:12:30.841Z,34.53
2023-01-30T11:15:04.035Z,32.83
2023-01-30T11:17:38.684Z,33.65
2023-01-30T11:20:16.388Z,34.10
2023-01-30T11:22:50.875Z,34.22
2023-01-30T11:25:22.895Z,31.41
2023-01-30T11:27:57.354Z,31.76
2023-01-30T11:30:31.490Z,32.08
2023-01-30T11:33:15.530Z,32.40
2023-01-30T11:35:53.656Z,31.30
2023-01-30T11:38:25.885Z,31.00
2023-01-30T11:41:06.466Z,30.85
2023-01-30T11:43:37.275Z,30.57
2023-01-30T11:46:07.210Z,30.84
2023-01-30T11:49:20.786Z,30.77
2023-01-30T11:51:37.568Z,30.58
2023-01-30T11:54:09.396Z,30.48
2023-01-30T11:56:42.621Z,29.82
2023-01-30T11:59:27.762Z,29.62
2023-01-30T12:02:07.188Z,29.99
2023-01-30T12:04:37.728Z,29.13
2023-01-30T12:07:10.282Z,29.30
2023-01-30T12:09:41.077Z,28.46
2023-01-30T12:12:30.118Z,28.38
2023-01-30T12:15:13.247Z,27.35
2023-01-30T12:17:50.523Z,26.55
2023-01-30T12:20:31.974Z,26.35
2023-01-30T12:23:12.317Z,26.74
2023-01-30T12:25:46.151Z,27.51
2023-01-30T12:28:23.794Z,26.80
2023-01-30T12:30:57.613Z,26.23
2023-01-30T12:33:32.092Z,27.43
2023-01-30T12:36:17.989Z,28.46
2023-01-30T12:39:06.096Z,28.66
2023-01-30T12:42:03.826Z,28.89
2023-01-30T12:44:47.916Z,29.69
2023-01-30T12:47:45.749Z,30.68
2023-01-30T12:50:26.249Z,30.97
2023-01-30T12:53:25.503Z,31.63
2023-01-30T12:56:40.090Z,32.02
2023-01-30T12:59:17.496Z,32.48
2023-01-30T13:01:58.220Z,32.51
2023-01-30T13:05:01.895Z,32.85
2023-01-30T13:07:42.849Z,33.77
2023-01-30T13:10:20.782Z,34.40
2023-01-30T13:13:02.198Z,35.42
2023-01-30T13:15:42.064Z,35.77
2023-01-30T13:18:16.654Z,37.13
2023-01-30T13:20:58.610Z,37.01
2023-01-30T13:23:44.640Z,37.64
2023-01-30T13:26:20.412Z,38.01
2023-01-30T13:28:52.336Z,38.19
2023-01-30T13:31:25.100Z,38.26
2023-01-30T13:34:05.657Z,38.60
2023-01-30T13:36:44.827Z,38.70
2023-01-30T13:39:20.239Z,39.10
2023-01-30T13:41:56.550Z,39.33
2023-01-30T13:44:31.876Z,39.43
2023-01-30T13:47:23.875Z,39.57
2023-01-30T13:50:06.625Z,39.58
2023-01-30T13:52:43.135Z,39.92
2023-01-30T13:55:27.617Z,39.96
2023-01-30T13:58:05.833Z,40.56
2023-01-30T14:00:36.198Z,40.68
2023-01-30T14:03:26.218Z,40.99
2023-01-30T14:06:41.923Z,41.42
2023-01-30T14:09:33.300Z,41.78
2023-01-30T14:12:04.359Z,42.07
2023-01-30T14:14:36.757Z,42.30
2023-01-30T14:17:15.602Z,41.92
2023-01-30T14:20:06.760Z,42.15
2023-01-30T14:22:49.773Z,42.30
2023-01-30T14:25:49.032Z,42.32
2023-01-30T14:28:51.817Z,42.42
2023-01-30T14:31:55.031Z,42.98
2023-01-30T14:34:49.508Z,42.91
2023-01-30T14:38:12.822Z,42.90
2023-01-30T14:41:26.188Z,42.71
2023-01-30T14:43:54.854Z,43.15
2023-01-30T14:46:54.303Z,43.30
2023-01-30T14:49:34.191Z,42.98
2023-01-30T14:52:05.134Z,42.88
2023-01-30T14:54:45.857Z,42.98
2023-01-30T14:57:27.883Z,42.93
2023-01-30T15:00:15.077Z,42.89
2023-01-30T15:02:52.692Z,43.22
2023-01-30T15:05:32.159Z,43.17
2023-01-30T15:08:08.914Z,43.43
2023-01-30T15:11:12.485Z,43.73
2023-01-30T15:14:07.568Z,43.50
2023-01-30T15:17:09.382Z,43.29
2023-01-30T15:20:13.066Z,43.50
2023-01-30T15:23:07.473Z,43.48
2023-01-30T15:25:54.967Z,43.51
2023-01-30T15:28:38.591Z,43.19
2023-01-30T15:31:14.353Z,43.48
2023-01-30T15:33:48.202Z,43.43
2023-01-30T15:36:25.645Z,43.24
2023-01-30T15:39:04.728Z,44.01
2023-01-30T15:41:41.150Z,43.87
2023-01-30T15:44:48.557Z,43.75
2023-01-30T15:47:51.929Z,43.74
2023-01-30T15:50:21.135Z,43.80
2023-01-30T15:52:54.228Z,43.93
2023-01-30T15:55:28.183Z,43.82
2023-01-30T15:58:00.544Z,43.78
2023-01-30T16:00:33.026Z,43.94
2023-01-30T16:03:04.682Z,43.87
2023-01-30T16:05:33.677Z,44.07
2023-01-30T16:08:20.165Z,44.25
2023-01-30T16:10:51.809Z,44.05
2023-01-30T16:13:23.936Z,44.03
2023-01-30T16:16:00.141Z,44.09
2023-01-30T16:18:35.009Z,44.03
2023-01-30T16:21:06.623Z,43.92
2023-01-30T16:23:39.901Z,43.51
2023-01-30T16:26:18.246Z,43.58
2023-01-30T16:28:46.971Z,43.88
2023-01-30T16:31:16.780Z,43.68
2023-01-30T16:33:52.081Z,43.49
2023-01-30T16:36:41.888Z,43.79
2023-01-30T16:39:32.037Z,44.08
2023-01-30T16:42:05.202Z,43.75
2023-01-30T16:44:34.461Z,43.76
2023-01-30T16:47:06.427Z,43.63
2023-01-30T16:49:47.526Z,43.48
2023-01-30T16:52:22.299Z,43.75
2023-01-30T16:54:54.577Z,43.86
2023-01-30T16:57:37.051Z,43.81
2023-01-30T17:00:11.748Z,43.90
2023-01-30T17:02:44.259Z,43.51
2023-01-30T17:05:21.893Z,43.42
2023-01-30T17:07:53.844Z,43.76
2023-01-30T17:10:55.899Z,43.49
2023-01-30T17:13:44.581Z,43.68
2023-01-30T17:16:34.100Z,44.20
2023-01-30T17:19:03.406Z,43.81
2023-01-30T17:21:37.337Z,44.02
2023-01-30T17:24:07.606Z,44.22
2023-01-30T17:26:40.831Z,44.26
2023-01-30T17:29:23.559Z,44.29
2023-01-30T17:32:07.814Z,44.35
2023-01-30T17:34:41.420Z,44.33
2023-01-30T17:37:16.588Z,44.49
2023-01-30T17:39:46.293Z,44.48
2023-01-30T17:42:21.275Z,45.00
2023-01-30T17:44:54.199Z,44.31
2023-01-30T17:47:23.268Z,44.75
2023-01-30T17:49:56.402Z,44.76
2023-01-30T17:52:26.968Z,44.50
2023-01-30T17:54:56.353Z,44.60
2023-01-30T17:57:26.266Z,44.92
2023-01-30T17:59:56.900Z,44.71
2023-01-30T18:02:28.282Z,44.96
2023-01-30T18:04:57.618Z,44.81
2023-01-30T18:07:30.793Z,44.89
2023-01-30T18:10:00.499Z,44.72
2023-01-30T18:12:30.282Z,44.81
2023-01-30T18:15:00.967Z,44.75
2023-01-30T18:17:32.722Z,44.64
2023-01-30T18:20:04.838Z,44.70
2023-01-30T18:22:35.140Z,44.87
2023-01-30T18:25:08.560Z,44.63
2023-01-30T18:27:38.923Z,44.89
2023-01-30T18:30:14.087Z,44.66
2023-01-30T18:32:52.396Z,44.65
2023-01-30T18:35:23.454Z,44.57
2023-01-30T18:37:58.171Z,44.70
2023-01-30T18:40:30.573Z,44.64
2023-01-30T18:43:03.914Z,44.36
2023-01-30T18:45:37.192Z,44.63
2023-01-30T18:48:07.747Z,44.21
2023-01-30T18:50:38.349Z,44.18
2023-01-30T18:53:08.685Z,44.38
2023-01-30T18:55:39.318Z,44.14
2023-01-30T18:58:09.072Z,44.38
2023-01-30T19:00:40.943Z,44.35
2023-01-30T19:03:12.122Z,44.32
2023-01-30T19:05:44.008Z,43.84
2023-01-30T19:08:14.291Z,44.13
2023-01-30T19:10:44.782Z,44.09
2023-01-30T19:13:31.416Z,44.17
2023-01-30T19:16:05.667Z,43.83
2023-01-30T19:18:36.511Z,44.02
2023-01-30T19:21:07.005Z,44.01
2023-01-30T19:23:46.126Z,43.94
2023-01-30T19:26:21.517Z,43.68
2023-01-30T19:28:52.826Z,43.99
2023-01-30T19:31:25.382Z,44.32
2023-01-30T19:34:02.026Z,44.11
2023-01-30T19:36:34.181Z,44.48
2023-01-30T19:39:06.570Z,45.16
2023-01-30T19:41:38.528Z,44.73
2023-01-30T19:44:12.192Z,45.21
2023-01-30T19:46:45.486Z,45.00
2023-01-30T19:49:18.699Z,45.24
2023-01-30T19:51:51.271Z,44.86
2023-01-30T19:54:22.199Z,45.00
2023-01-30T19:56:52.991Z,44.79
2023-01-30T19:59:23.207Z,44.91
2023-01-30T20:01:56.174Z,44.98
2023-01-30T20:04:28.271Z,45.16
2023-01-30T20:06:59.855Z,45.19
2023-01-30T20:09:30.616Z,45.09
2023-01-30T20:12:02.604Z,44.97
2023-01-30T20:14:33.376Z,45.12
2023-01-30T20:17:04.875Z,44.83
2023-01-30T20:19:34.156Z,44.93
2023-01-30T20:22:08.875Z,44.91
2023-01-30T20:24:40.584Z,45.04
2023-01-30T20:27:10.136Z,45.06
2023-01-30T20:29:43.728Z,45.02
2023-01-30T20:32:15.591Z,45.33
2023-01-30T20:34:45.861Z,45.00
2023-01-30T20:37:16.440Z,45.24
2023-01-30T20:39:46.581Z,45.41
2023-01-30T20:42:16.224Z,45.38
2023-01-30T20:44:47.144Z,45.60
2023-01-30T20:47:19.211Z,45.39
2023-01-30T20:49:50.991Z,45.14
2023-01-30T20:52:20.995Z,45.18
2023-01-30T20:54:50.935Z,45.18
2023-01-30T20:57:21.353Z,45.24
2023-01-30T20:59:50.580Z,45.07
2023-01-30T21:02:21.527Z,45.32
2023-01-30T21:04:52.051Z,45.39
2023-01-30T21:07:22.311Z,45.60
2023-01-30T21:09:51.889Z,45.84
2023-01-30T21:12:21.106Z,46.56
2023-01-30T21:14:50.223Z,46.78
2023-01-30T21:17:20.225Z,46.88
2023-01-30T21:19:48.976Z,46.62
2023-01-30T21:22:18.309Z,46.46
2023-01-30T21:24:49.425Z,46.43
2023-01-30T21:27:20.474Z,46.64
2023-01-30T21:29:49.322Z,46.89
2023-01-30T21:32:20.086Z,46.77
2023-01-30T21:34:49.029Z,46.77
2023-01-30T21:37:34.992Z,46.71
2023-01-30T21:40:21.283Z,46.31
2023-01-30T21:43:06.969Z,46.34
2023-01-30T21:45:35.423Z,46.51
2023-01-30T21:48:06.657Z,46.60
2023-01-30T21:50:35.386Z,46.66
2023-01-30T21:53:03.861Z,46.54
2023-01-30T21:55:32.272Z,46.54
2023-01-30T21:58:00.736Z,46.73
2023-01-30T22:00:29.188Z,46.46
2023-01-30T22:02:57.578Z,46.14
2023-01-30T22:05:28.223Z,46.64
2023-01-30T22:07:56.620Z,46.64
2023-01-30T22:10:25.042Z,46.54
2023-01-30T22:12:53.688Z,46.51
2023-01-30T22:15:22.757Z,46.54
2023-01-30T22:17:51.597Z,46.36
2023-01-30T22:20:20.276Z,46.22
2023-01-30T22:22:50.129Z,46.43
2023-01-30T22:25:18.937Z,46.05
2023-01-30T22:27:47.530Z,46.18
2023-01-30T22:30:16.387Z,45.69
2023-01-30T22:32:44.821Z,45.61
2023-01-30T22:35:13.359Z,45.74
2023-01-30T22:37:41.767Z,45.32
2023-01-30T22:40:13.988Z,45.11
2023-01-30T22:42:49.141Z,45.24
2023-01-30T22:45:18.253Z,44.83
2023-01-30T22:47:46.900Z,44.94
2023-01-30T22:50:15.603Z,44.91
2023-01-30T22:52:44.002Z,44.63
2023-01-30T22:55:13.853Z,45.03
2023-01-30T22:57:42.245Z,45.09
2023-01-30T23:00:12.796Z,45.30
2023-01-30T23:02:41.214Z,44.92
2023-01-30T23:05:10.415Z,44.87
2023-01-30T23:07:39.211Z,44.86
2023-01-30T23:10:09.029Z,44.81
2023-01-30T23:12:56.375Z,44.57
2023-01-30T23:15:24.777Z,44.81
2023-01-30T23:18:10.802Z,45.07
2023-01-30T23:20:39.203Z,45.21
2023-01-30T23:23:07.881Z,45.33
2023-01-30T23:25:40.413Z,45.03
2023-01-30T23:28:10.597Z,45.28
2023-01-30T23:30:39.317Z,45.58
2023-01-30T23:33:08.071Z,45.52
2023-01-30T23:35:36.659Z,45.38
2023-01-30T23:38:18.996Z,45.57
2023-01-30T23:40:49.108Z,45.33
2023-01-30T23:43:21.008Z,45.54
2023-01-30T23:45:53.944Z,45.14
2023-01-30T23:48:22.352Z,45.23
2023-01-30T23:50:50.780Z,45.15
2023-01-30T23:53:19.297Z,44.92
2023-01-30T23:55:52.988Z,44.99
2023-01-30T23:58:23.240Z,45.32
